Time;durP1;ratioP1;P1;durP2;ratioP2;P2;SDS_P1;SDS_P2;PMS_P1;PMS_P2;Temp;Humidity;BMP_temperature;BMP_pressure;BME280_temperature;BME280_humidity;BME280_pressure;Samples;Min_cycle;Max_cycle;Signal;HPM_P1;HPM_P2
2023/05/16 00:00:24;;;;;;;3.60;3.30;;;19.40;74.70;;;;;;4967790;28;20448;-46
2023/05/16 00:02:54;;;;;;;4.30;3.90;;;19.40;74.60;;;;;;4982655;28;20486;-46
2023/05/16 00:05:23;;;;;;;4.47;3.67;;;19.40;74.70;;;;;;4971987;28;20497;-45
2023/05/16 00:07:53;;;;;;;3.77;3.47;;;19.40;74.60;;;;;;4971321;28;20474;-46
2023/05/16 00:10:21;;;;;;;3.80;3.50;;;19.40;74.70;;;;;;4966243;28;20447;-45
2023/05/16 00:12:50;;;;;;;3.87;3.47;;;19.40;74.50;;;;;;4969564;28;20875;-46
2023/05/16 00:15:19;;;;;;;3.87;3.47;;;19.40;74.60;;;;;;4970926;28;20443;-45
2023/05/16 00:17:48;;;;;;;3.93;3.63;;;19.40;74.50;;;;;;4982899;28;20526;-46
2023/05/16 00:20:22;;;;;;;4.80;3.30;;;19.40;74.70;;;;;;4971493;28;20465;-47
2023/05/16 00:22:51;;;;;;;3.67;3.33;;;19.40;74.50;;;;;;4968482;28;20475;-49
2023/05/16 00:25:19;;;;;;;3.50;3.20;;;19.40;74.80;;;;;;4969934;28;20861;-46
2023/05/16 00:27:48;;;;;;;4.00;3.43;;;19.40;74.70;;;;;;4968574;28;20518;-44
2023/05/16 00:30:16;;;;;;;5.43;3.50;;;19.40;74.70;;;;;;4967647;28;20450;-45
2023/05/16 00:32:45;;;;;;;4.17;3.80;;;19.40;74.70;;;;;;4968348;28;20506;-49
2023/05/16 00:35:13;;;;;;;3.73;3.43;;;19.40;74.90;;;;;;4968364;28;20442;-46
2023/05/16 00:37:44;;;;;;;5.53;4.10;;;19.40;75.10;;;;;;4968954;28;20473;-46
2023/05/16 00:40:13;;;;;;;4.17;3.17;;;19.40;75.20;;;;;;4982330;28;20946;-45
2023/05/16 00:42:43;;;;;;;3.90;3.47;;;19.40;75.50;;;;;;4968240;28;20463;-46
2023/05/16 00:45:12;;;;;;;3.27;2.97;;;19.40;75.20;;;;;;4968092;28;20964;-45
2023/05/16 00:47:40;;;;;;;3.40;3.03;;;19.30;74.70;;;;;;4969509;28;20918;-45
2023/05/16 00:50:10;;;;;;;3.60;3.20;;;19.30;74.90;;;;;;4971602;28;20964;-45
2023/05/16 00:52:38;;;;;;;4.50;3.47;;;19.30;74.80;;;;;;4966845;28;20842;-45
2023/05/16 00:55:10;;;;;;;3.40;3.10;;;19.30;74.90;;;;;;4969480;28;20454;-45
2023/05/16 00:57:40;;;;;;;4.60;3.57;;;19.30;75.00;;;;;;4970551;28;20466;-45
2023/05/16 01:00:10;;;;;;;4.03;3.67;;;19.30;75.10;;;;;;4971537;28;20815;-45
2023/05/16 01:02:39;;;;;;;4.23;3.33;;;19.30;75.10;;;;;;4968134;28;21026;-44
2023/05/16 01:05:08;;;;;;;3.70;3.40;;;19.30;75.20;;;;;;4971230;28;20457;-46
2023/05/16 01:07:37;;;;;;;3.93;3.20;;;19.30;75.20;;;;;;4972085;28;20475;-45
2023/05/16 01:10:10;;;;;;;3.27;2.83;;;19.30;75.10;;;;;;4973882;28;20526;-45
2023/05/16 01:12:46;;;;;;;4.07;3.47;;;19.20;74.80;;;;;;4970147;28;20481;-45
2023/05/16 01:15:22;;;;;;;4.17;2.93;;;19.20;75.10;;;;;;4966612;28;20438;-44
2023/05/16 01:17:57;;;;;;;5.23;2.77;;;19.20;74.80;;;;;;4972190;28;20490;-44
2023/05/16 01:20:40;;;;;;;3.37;3.07;;;19.20;77.90;;;;;;4974798;28;20537;-45
2023/05/16 01:23:33;;;;;;;3.43;3.13;;;19.20;77.80;;;;;;4971172;28;20878;-46
2023/05/16 01:26:16;;;;;;;4.83;3.40;;;19.20;74.80;;;;;;4990773;28;20986;-46
2023/05/16 01:28:46;;;;;;;5.40;3.33;;;19.20;74.90;;;;;;4965842;28;20479;-45
2023/05/16 01:31:15;;;;;;;4.27;2.97;;;19.20;74.90;;;;;;4974028;28;20439;-45
2023/05/16 01:33:45;;;;;;;3.23;2.93;;;19.20;74.90;;;;;;4971263;28;20984;-46
2023/05/16 01:36:21;;;;;;;3.17;2.73;;;19.20;74.80;;;;;;4974565;28;20462;-45
2023/05/16 01:39:01;;;;;;;2.87;2.53;;;19.20;74.70;;;;;;4971911;28;20851;-47
2023/05/16 01:41:41;;;;;;;3.43;2.60;;;19.20;75.00;;;;;;4973383;28;20435;-46
2023/05/16 01:44:17;;;;;;;3.70;2.53;;;19.20;74.90;;;;;;4953478;28;20506;-44
2023/05/16 01:46:48;;;;;;;3.03;2.40;;;19.20;74.70;;;;;;4974198;28;20474;-48
2023/05/16 01:49:24;;;;;;;2.80;2.60;;;19.20;75.00;;;;;;4972283;28;20459;-47
2023/05/16 01:51:59;;;;;;;4.00;2.90;;;19.10;74.40;;;;;;4970184;28;20470;-50
2023/05/16 01:54:32;;;;;;;6.03;3.50;;;19.10;74.60;;;;;;4976952;28;20470;-45
2023/05/16 01:57:07;;;;;;;3.30;2.60;;;19.10;75.00;;;;;;4970403;28;20525;-46
2023/05/16 01:59:36;;;;;;;3.17;2.40;;;19.10;74.70;;;;;;4980375;28;21040;-46
2023/05/16 02:02:05;;;;;;;2.93;2.73;;;19.10;74.80;;;;;;4969807;28;20463;-46
2023/05/16 02:04:33;;;;;;;5.17;2.30;;;19.10;74.70;;;;;;4971517;28;20471;-47
2023/05/16 02:07:02;;;;;;;4.73;3.13;;;19.10;74.60;;;;;;4968860;28;20946;-46
2023/05/16 02:09:30;;;;;;;3.10;2.40;;;19.10;74.80;;;;;;4981109;28;20439;-49
2023/05/16 02:12:01;;;;;;;4.17;2.83;;;19.10;74.60;;;;;;4969990;28;20573;-45
2023/05/16 02:14:31;;;;;;;2.83;2.50;;;19.10;74.70;;;;;;4971732;28;20829;-46
2023/05/16 02:16:59;;;;;;;3.70;2.73;;;19.10;74.70;;;;;;4971445;28;20459;-46
2023/05/16 02:19:28;;;;;;;3.63;3.20;;;19.00;74.70;;;;;;4971630;28;20451;-45
2023/05/16 02:21:57;;;;;;;4.17;2.83;;;19.00;74.90;;;;;;4971742;28;20493;-47
2023/05/16 02:24:26;;;;;;;3.30;2.97;;;19.00;74.90;;;;;;4975431;28;20834;-46
2023/05/16 02:26:56;;;;;;;3.33;2.43;;;19.00;74.30;;;;;;4956122;28;20463;-45
2023/05/16 02:29:24;;;;;;;3.80;2.70;;;19.00;74.50;;;;;;4969137;28;20955;-45
2023/05/16 02:31:54;;;;;;;3.77;2.60;;;19.00;74.60;;;;;;4972006;28;20467;-46
2023/05/16 02:34:23;;;;;;;5.10;2.83;;;19.00;74.60;;;;;;4974010;28;20538;-46
2023/05/16 02:36:51;;;;;;;3.20;2.77;;;19.00;74.80;;;;;;4956062;28;20498;-46
2023/05/16 02:39:22;;;;;;;4.10;2.67;;;19.00;74.70;;;;;;4979770;28;20452;-45
2023/05/16 02:41:51;;;;;;;3.00;2.33;;;19.00;74.90;;;;;;4971995;28;20438;-43
2023/05/16 02:44:20;;;;;;;3.37;3.03;;;19.00;76.20;;;;;;4974498;28;20479;-46
2023/05/16 02:46:48;;;;;;;3.63;2.83;;;19.00;74.90;;;;;;4970802;28;20878;-45
2023/05/16 02:49:18;;;;;;;3.40;2.27;;;19.00;74.90;;;;;;4981790;28;20451;-48
2023/05/16 02:51:47;;;;;;;3.63;2.70;;;19.00;74.80;;;;;;4970160;28;20810;-45
2023/05/16 02:54:16;;;;;;;4.87;2.40;;;19.00;75.10;;;;;;4968700;28;20451;-47
2023/05/16 02:56:44;;;;;;;3.33;2.17;;;19.00;74.90;;;;;;4970415;28;20885;-45
2023/05/16 02:59:13;;;;;;;3.00;2.47;;;19.00;75.00;;;;;;4970626;28;20493;-45
2023/05/16 03:01:42;;;;;;;3.67;3.30;;;19.00;75.10;;;;;;4969561;28;20455;-45
2023/05/16 03:04:10;;;;;;;4.77;3.47;;;18.90;74.90;;;;;;4969630;28;20469;-46
2023/05/16 03:06:40;;;;;;;3.73;2.63;;;18.90;75.00;;;;;;4968319;28;20788;-46
2023/05/16 03:09:09;;;;;;;4.50;2.63;;;18.90;74.90;;;;;;4972059;28;21015;-48
2023/05/16 03:11:37;;;;;;;5.17;3.07;;;18.90;75.10;;;;;;4969434;28;20530;-48
2023/05/16 03:14:07;;;;;;;3.10;2.40;;;18.90;75.00;;;;;;4977717;28;20447;-47
2023/05/16 03:16:37;;;;;;;4.10;2.40;;;18.90;75.00;;;;;;4970429;28;20895;-48
2023/05/16 03:19:06;;;;;;;3.37;2.73;;;18.90;75.10;;;;;;4971714;28;20546;-46
2023/05/16 03:21:35;;;;;;;3.10;2.00;;;18.90;76.40;;;;;;4970050;28;20478;-46
2023/05/16 03:24:05;;;;;;;3.60;2.97;;;18.90;75.00;;;;;;4949566;28;20487;-45
2023/05/16 03:26:34;;;;;;;3.53;2.83;;;18.90;74.90;;;;;;4945639;28;20471;-47
2023/05/16 03:29:02;;;;;;;2.47;2.20;;;18.90;74.90;;;;;;4952066;28;20715;-45
2023/05/16 03:31:32;;;;;;;2.87;2.57;;;18.90;74.70;;;;;;4943324;28;20451;-47
2023/05/16 03:34:00;;;;;;;3.93;2.40;;;18.90;75.00;;;;;;4972716;28;20600;-46
2023/05/16 03:36:29;;;;;;;2.90;2.43;;;18.90;74.60;;;;;;4970967;28;20467;-46
2023/05/16 03:38:57;;;;;;;3.20;2.70;;;18.90;74.90;;;;;;4964019;28;20483;-46
2023/05/16 03:41:27;;;;;;;4.30;2.67;;;18.90;75.00;;;;;;4967380;28;20436;-47
2023/05/16 03:43:56;;;;;;;3.13;2.00;;;18.90;76.10;;;;;;4982170;28;20491;-48
2023/05/16 03:46:24;;;;;;;3.40;2.50;;;18.90;75.20;;;;;;4969796;28;20491;-46
2023/05/16 03:48:53;;;;;;;3.60;2.30;;;18.80;74.90;;;;;;4969947;28;20494;-46
2023/05/16 03:51:21;;;;;;;3.37;2.23;;;18.80;74.90;;;;;;4968806;28;20818;-46
2023/05/16 03:53:50;;;;;;;4.00;2.47;;;18.80;75.00;;;;;;4967092;28;20559;-46
2023/05/16 03:56:18;;;;;;;4.80;2.77;;;18.80;75.00;;;;;;4970471;28;21549;-47
2023/05/16 03:58:48;;;;;;;3.33;2.27;;;18.80;75.00;;;;;;4969224;28;20487;-46
2023/05/16 04:01:16;;;;;;;4.37;2.40;;;18.80;75.10;;;;;;4969751;28;20442;-46
2023/05/16 04:03:45;;;;;;;3.50;2.60;;;18.80;74.90;;;;;;4983483;28;20486;-45
2023/05/16 04:06:13;;;;;;;2.93;2.57;;;18.80;74.90;;;;;;4970301;28;20514;-46
2023/05/16 04:08:43;;;;;;;2.80;2.30;;;18.80;75.00;;;;;;4968614;28;20504;-46
2023/05/16 04:11:12;;;;;;;2.90;2.20;;;18.80;75.00;;;;;;4969759;28;20492;-45
2023/05/16 04:13:40;;;;;;;2.60;2.00;;;18.70;75.00;;;;;;4966521;28;20819;-45
2023/05/16 04:16:10;;;;;;;4.30;2.77;;;18.70;75.00;;;;;;4968701;28;21197;-46
2023/05/16 04:18:38;;;;;;;3.70;2.50;;;18.70;74.90;;;;;;4980302;28;20469;-47
2023/05/16 04:21:09;;;;;;;3.50;2.17;;;18.70;75.00;;;;;;4969977;28;20435;-47
2023/05/16 04:23:38;;;;;;;2.80;2.17;;;18.70;75.00;;;;;;4966865;28;20915;-45
2023/05/16 04:26:06;;;;;;;3.40;2.00;;;18.70;75.00;;;;;;4966869;28;22070;-45
2023/05/16 04:28:35;;;;;;;3.77;2.40;;;18.70;75.00;;;;;;4968968;28;22032;-49
2023/05/16 04:31:03;;;;;;;3.90;2.27;;;18.70;74.90;;;;;;4972051;28;20439;-47
2023/05/16 04:33:34;;;;;;;3.13;2.50;;;18.70;74.20;;;;;;4962856;28;20479;-47
2023/05/16 04:36:02;;;;;;;3.80;2.20;;;18.70;75.00;;;;;;4970944;28;20449;-45
2023/05/16 04:38:31;;;;;;;2.70;2.17;;;18.70;74.60;;;;;;4988279;28;20483;-47
2023/05/16 04:41:00;;;;;;;4.60;2.37;;;18.70;75.00;;;;;;4973556;28;20447;-49
2023/05/16 04:43:29;;;;;;;2.90;2.53;;;18.70;74.90;;;;;;4986143;28;20558;-49
2023/05/16 04:45:58;;;;;;;3.00;2.43;;;18.70;75.20;;;;;;4973223;28;20525;-46
2023/05/16 04:48:26;;;;;;;3.70;2.10;;;18.70;75.00;;;;;;4973313;28;20551;-45
2023/05/16 04:50:56;;;;;;;4.30;2.17;;;18.70;75.10;;;;;;4973034;28;20459;-52
2023/05/16 04:53:25;;;;;;;5.60;2.60;;;18.70;75.10;;;;;;4984399;28;20474;-48
2023/05/16 04:55:54;;;;;;;2.13;1.67;;;18.60;75.00;;;;;;4972892;28;20423;-46
2023/05/16 04:58:23;;;;;;;4.20;2.57;;;18.60;74.80;;;;;;4970592;28;21002;-49
2023/05/16 05:00:52;;;;;;;4.33;2.40;;;18.60;74.80;;;;;;4975388;28;20431;-46
2023/05/16 05:03:20;;;;;;;4.63;2.77;;;18.60;75.10;;;;;;4972411;28;20471;-46
2023/05/16 05:05:49;;;;;;;3.83;2.37;;;18.60;75.00;;;;;;4972628;28;20829;-46
2023/05/16 05:08:19;;;;;;;3.43;2.27;;;18.60;75.10;;;;;;4971296;28;20844;-47
2023/05/16 05:10:47;;;;;;;4.13;2.27;;;18.60;75.20;;;;;;4972375;28;20546;-46
2023/05/16 05:13:16;;;;;;;4.00;2.57;;;18.60;75.00;;;;;;4973110;28;20473;-50
2023/05/16 05:15:44;;;;;;;3.23;2.17;;;18.60;75.20;;;;;;4978193;28;20427;-46
2023/05/16 05:18:12;;;;;;;4.00;2.17;;;18.60;74.80;;;;;;4986544;28;20483;-45
2023/05/16 05:20:42;;;;;;;4.13;2.00;;;18.60;74.80;;;;;;4971202;28;20478;-45
2023/05/16 05:23:10;;;;;;;3.87;2.30;;;18.60;74.80;;;;;;4970517;28;20501;-46
2023/05/16 05:25:40;;;;;;;3.40;1.90;;;18.60;74.70;;;;;;4967601;28;20542;-44
2023/05/16 05:28:09;;;;;;;3.00;1.60;;;18.70;74.50;;;;;;4972984;28;20467;-45
2023/05/16 05:30:37;;;;;;;3.60;2.40;;;18.70;74.00;;;;;;4970404;28;20525;-45
2023/05/16 05:33:11;;;;;;;5.40;2.67;;;18.70;73.60;;;;;;4986315;28;20845;-45
2023/05/16 05:35:42;;;;;;;4.43;2.00;;;18.70;73.60;;;;;;4971723;28;20443;-45
2023/05/16 05:38:11;;;;;;;4.03;2.40;;;18.70;74.80;;;;;;4972130;28;21073;-44
2023/05/16 05:40:41;;;;;;;2.70;1.70;;;18.70;73.70;;;;;;4971367;28;20857;-45
2023/05/16 05:43:10;;;;;;;2.93;1.80;;;18.70;73.60;;;;;;4986827;28;20467;-46
2023/05/16 05:45:41;;;;;;;6.53;2.30;;;18.70;73.30;;;;;;4970457;28;20554;-45
2023/05/16 05:48:10;;;;;;;3.57;2.00;;;18.70;73.30;;;;;;4967579;28;20509;-44
2023/05/16 05:50:39;;;;;;;3.17;1.90;;;18.70;73.40;;;;;;4968434;28;20502;-46
2023/05/16 05:53:08;;;;;;;2.30;1.60;;;18.70;73.20;;;;;;4983694;28;20578;-48
2023/05/16 05:55:36;;;;;;;3.07;1.90;;;18.70;73.00;;;;;;4968682;28;20949;-50
2023/05/16 05:58:06;;;;;;;3.63;2.57;;;18.60;73.20;;;;;;4969785;28;20651;-46
2023/05/16 06:00:34;;;;;;;5.87;1.73;;;18.60;73.20;;;;;;4966186;28;20478;-46
2023/05/16 06:03:03;;;;;;;3.30;1.67;;;18.60;73.10;;;;;;4970584;28;20471;-47
2023/05/16 06:05:33;;;;;;;2.97;1.83;;;18.60;73.10;;;;;;4964813;28;20467;-46
2023/05/16 06:08:01;;;;;;;5.23;2.40;;;18.60;72.90;;;;;;4969594;28;20507;-49
2023/05/16 06:10:30;;;;;;;3.43;1.77;;;18.60;72.90;;;;;;4987650;28;20509;-45
2023/05/16 06:12:58;;;;;;;5.90;2.10;;;18.60;73.00;;;;;;4970576;28;20610;-45
2023/05/16 06:15:28;;;;;;;3.30;2.03;;;18.60;73.00;;;;;;4969865;28;20486;-49
2023/05/16 06:17:57;;;;;;;5.07;2.30;;;18.60;73.00;;;;;;4970753;28;20463;-47
2023/05/16 06:20:25;;;;;;;3.40;2.17;;;18.60;73.00;;;;;;4970214;28;20599;-46
2023/05/16 06:22:54;;;;;;;5.53;2.10;;;18.60;72.90;;;;;;4985859;28;20550;-45
2023/05/16 06:25:22;;;;;;;2.77;1.80;;;18.60;73.00;;;;;;4986348;28;20543;-45
2023/05/16 06:27:50;;;;;;;4.73;2.40;;;18.60;73.00;;;;;;4969037;28;21063;-49
2023/05/16 06:30:19;;;;;;;3.90;2.23;;;18.60;72.80;;;;;;4969558;28;20451;-47
2023/05/16 06:32:49;;;;;;;3.70;1.90;;;18.50;72.60;;;;;;4970081;28;20447;-46
2023/05/16 06:35:18;;;;;;;2.87;2.00;;;18.60;72.70;;;;;;4971760;28;20459;-46
2023/05/16 06:37:46;;;;;;;2.27;1.70;;;18.50;72.50;;;;;;4969962;28;20471;-45
2023/05/16 06:40:15;;;;;;;3.17;2.23;;;18.60;72.80;;;;;;4969542;28;20486;-47
2023/05/16 06:42:43;;;;;;;3.03;2.17;;;18.60;72.90;;;;;;4971116;28;20439;-46
2023/05/16 06:45:12;;;;;;;3.80;2.60;;;18.60;72.80;;;;;;4978689;28;20575;-45
2023/05/16 06:47:41;;;;;;;3.57;2.20;;;18.60;72.70;;;;;;4971953;28;20486;-48
2023/05/16 06:50:11;;;;;;;2.57;1.40;;;18.60;72.80;;;;;;4968546;28;20538;-46
2023/05/16 06:52:40;;;;;;;2.93;1.57;;;18.60;72.90;;;;;;4970345;28;20471;-46
2023/05/16 06:55:11;;;;;;;3.70;1.90;;;18.60;72.80;;;;;;4968382;28;20482;-46
2023/05/16 06:57:39;;;;;;;3.80;1.80;;;18.60;72.70;;;;;;4980591;28;20467;-48
2023/05/16 07:00:09;;;;;;;4.07;2.17;;;18.60;72.70;;;;;;4970783;28;20845;-46
2023/05/16 07:02:37;;;;;;;3.17;1.87;;;18.60;72.70;;;;;;4970697;28;20463;-47
2023/05/16 07:05:07;;;;;;;4.00;2.00;;;18.60;72.60;;;;;;4981746;28;20451;-47
2023/05/16 07:07:37;;;;;;;2.20;1.80;;;18.50;72.50;;;;;;4969892;28;20485;-45
2023/05/16 07:10:06;;;;;;;4.30;2.10;;;18.50;72.60;;;;;;4984392;28;20586;-49
2023/05/16 07:12:36;;;;;;;3.20;1.87;;;18.50;72.60;;;;;;4969595;28;20467;-45
2023/05/16 07:15:06;;;;;;;3.80;1.93;;;18.50;72.60;;;;;;4977668;28;20459;-45
2023/05/16 07:17:34;;;;;;;4.57;2.00;;;18.50;72.60;;;;;;4985951;28;20463;-45
2023/05/16 07:20:03;;;;;;;3.40;1.83;;;18.50;72.40;;;;;;4968086;28;20483;-45
2023/05/16 07:22:32;;;;;;;2.57;1.90;;;18.50;72.60;;;;;;4970212;28;20439;-44
2023/05/16 07:25:03;;;;;;;3.03;1.90;;;18.50;72.30;;;;;;4970572;28;20450;-47
2023/05/16 07:27:32;;;;;;;1.87;1.40;;;18.50;72.30;;;;;;4962499;28;20506;-44
2023/05/16 07:30:01;;;;;;;2.70;1.73;;;18.50;72.40;;;;;;4968737;28;20455;-45
2023/05/16 07:32:29;;;;;;;2.87;1.70;;;18.40;72.30;;;;;;4971485;28;20445;-44
2023/05/16 07:35:00;;;;;;;2.20;1.60;;;18.40;72.20;;;;;;4964818;28;20798;-49
2023/05/16 07:37:28;;;;;;;5.00;2.00;;;18.40;72.30;;;;;;4969034;28;20466;-47
2023/05/16 07:39:58;;;;;;;4.10;1.80;;;18.40;72.20;;;;;;4969714;28;20453;-46
2023/05/16 07:42:29;;;;;;;3.57;1.50;;;18.40;72.20;;;;;;4984685;28;21565;-46
2023/05/16 07:44:57;;;;;;;2.83;1.83;;;18.40;72.30;;;;;;4967618;28;20451;-46
2023/05/16 07:47:26;;;;;;;3.10;1.87;;;18.40;72.30;;;;;;4983962;28;20482;-44
2023/05/16 07:49:55;;;;;;;6.30;2.10;;;18.40;72.60;;;;;;4969458;28;20689;-45
2023/05/16 07:52:24;;;;;;;6.33;2.57;;;18.40;70.90;;;;;;4966647;28;20255;-45
2023/05/16 07:54:52;;;;;;;4.50;1.93;;;18.30;70.80;;;;;;4969140;28;20483;-47
2023/05/16 07:57:21;;;;;;;6.10;2.17;;;18.20;65.70;;;;;;4983067;28;20496;-45
2023/05/16 07:59:54;;;;;;;5.27;1.93;;;17.90;61.20;;;;;;4965052;28;20984;-43
2023/05/16 08:02:25;;;;;;;6.90;2.50;;;17.80;63.20;;;;;;4969336;28;20455;-46
2023/05/16 08:04:54;;;;;;;6.60;2.40;;;17.80;63.90;;;;;;4969465;28;20953;-46
2023/05/16 08:07:22;;;;;;;7.40;2.77;;;17.90;64.70;;;;;;4966462;28;20548;-49
2023/05/16 08:09:51;;;;;;;5.47;2.10;;;17.90;65.50;;;;;;4977140;28;20455;-47
2023/05/16 08:12:20;;;;;;;7.17;2.10;;;18.00;66.50;;;;;;4972553;28;20447;-45
2023/05/16 08:14:48;;;;;;;4.83;2.30;;;18.10;67.00;;;;;;4972342;28;20455;-44
2023/05/16 08:17:19;;;;;;;6.73;1.90;;;18.10;66.80;;;;;;4972719;28;20541;-45
2023/05/16 08:19:48;;;;;;;2.93;1.73;;;18.10;67.00;;;;;;4973793;28;20895;-46
2023/05/16 08:22:17;;;;;;;2.40;1.60;;;18.20;67.60;;;;;;4973062;28;20443;-45
2023/05/16 08:24:49;;;;;;;6.10;1.70;;;18.20;68.00;;;;;;4973304;28;20451;-46
2023/05/16 08:27:18;;;;;;;6.60;1.83;;;18.20;68.10;;;;;;4972916;28;20836;-46
2023/05/16 08:29:47;;;;;;;4.77;2.27;;;18.20;68.30;;;;;;4971435;28;20443;-47
2023/05/16 08:32:16;;;;;;;4.77;1.80;;;18.20;68.20;;;;;;4973481;28;20450;-47
2023/05/16 08:34:46;;;;;;;5.63;1.53;;;18.20;68.40;;;;;;4971561;28;20451;-45
2023/05/16 08:37:15;;;;;;;6.37;2.03;;;18.20;68.40;;;;;;4971913;28;20466;-47
2023/05/16 08:39:45;;;;;;;5.07;2.00;;;18.20;68.60;;;;;;4968840;28;20956;-43
2023/05/16 08:42:13;;;;;;;3.70;1.80;;;18.20;68.40;;;;;;4972146;28;20475;-46
2023/05/16 08:44:42;;;;;;;7.20;2.13;;;18.20;68.30;;;;;;4970338;28;20461;-45
2023/05/16 08:47:13;;;;;;;4.50;1.90;;;18.20;68.30;;;;;;4974001;28;20573;-47
2023/05/16 08:49:44;;;;;;;2.73;1.87;;;18.20;68.40;;;;;;4970804;28;20964;-46
2023/05/16 08:52:18;;;;;;;6.40;1.63;;;18.20;68.40;;;;;;4970105;28;20462;-45
2023/05/16 08:54:48;;;;;;;5.20;1.90;;;18.20;65.10;;;;;;4972555;28;21035;-46
2023/05/16 08:57:37;;;;;;;7.00;1.40;;;18.10;65.80;;;;;;4988003;28;20463;-44
2023/05/16 09:00:12;;;;;;;6.67;2.03;;;18.10;63.70;;;;;;4971182;28;20459;-46
2023/05/16 09:02:43;;;;;;;4.70;2.20;;;17.80;59.30;;;;;;4967292;28;20449;-45
2023/05/16 09:05:13;;;;;;;5.87;1.90;;;17.60;61.50;;;;;;4985328;28;20200;-46
2023/05/16 09:07:45;;;;;;;5.87;2.03;;;17.70;63.10;;;;;;4972239;28;20471;-45
2023/05/16 09:10:14;;;;;;;5.23;2.00;;;17.70;63.50;;;;;;4972155;28;20944;-45
2023/05/16 09:12:43;;;;;;;6.23;2.07;;;17.80;64.20;;;;;;4971028;28;20499;-45
2023/05/16 09:15:13;;;;;;;3.33;1.50;;;17.80;64.50;;;;;;4969797;28;20457;-46
2023/05/16 09:17:45;;;;;;;4.10;1.90;;;17.90;64.70;;;;;;4987071;28;20471;-47
2023/05/16 09:20:19;;;;;;;4.30;2.23;;;17.90;65.10;;;;;;4971346;28;20447;-46
2023/05/16 09:22:55;;;;;;;3.20;2.00;;;18.00;65.30;;;;;;4968826;28;20463;-46
2023/05/16 09:25:26;;;;;;;5.47;2.00;;;18.00;67.00;;;;;;4972182;28;20443;-46
2023/05/16 09:28:01;;;;;;;4.50;2.27;;;18.10;66.00;;;;;;4973432;28;20478;-44
2023/05/16 09:30:32;;;;;;;4.07;1.30;;;18.10;65.90;;;;;;4966323;28;20784;-46
2023/05/16 09:33:02;;;;;;;4.47;1.70;;;18.10;65.90;;;;;;4965761;28;20472;-45
2023/05/16 09:35:32;;;;;;;5.53;2.30;;;18.10;65.70;;;;;;4994464;28;20447;-45
2023/05/16 09:38:06;;;;;;;4.10;1.80;;;18.10;66.00;;;;;;4978505;28;20463;-45
2023/05/16 09:40:40;;;;;;;3.57;1.53;;;18.10;66.10;;;;;;4972834;28;20448;-43
2023/05/16 09:43:09;;;;;;;5.60;1.73;;;18.10;66.30;;;;;;4977393;28;20561;-47
2023/05/16 09:45:38;;;;;;;3.83;1.50;;;18.10;66.30;;;;;;4971150;28;20482;-46
2023/05/16 09:48:09;;;;;;;2.73;1.20;;;18.10;66.60;;;;;;4971285;28;20478;-46
2023/05/16 09:50:41;;;;;;;2.90;1.30;;;18.10;66.60;;;;;;4970976;28;20447;-48
2023/05/16 09:53:14;;;;;;;7.23;1.30;;;18.10;66.80;;;;;;4967984;28;20483;-44
2023/05/16 09:55:43;;;;;;;5.43;1.67;;;18.10;67.00;;;;;;4971878;28;20469;-44
2023/05/16 09:58:18;;;;;;;3.77;1.33;;;18.10;66.80;;;;;;4979983;28;20561;-45
2023/05/16 10:01:00;;;;;;;4.67;1.90;;;18.10;66.50;;;;;;4981392;28;20980;-46
2023/05/16 10:04:04;;;;;;;3.97;1.60;;;18.10;66.60;;;;;;4973642;28;20483;-48
2023/05/16 10:07:27;;;;;;;5.07;1.87;;;18.10;66.70;;;;;;4963365;28;20475;-45
2023/05/16 10:13:41;;;;;;;5.07;1.50;;;18.10;66.70;;;;;;4945693;28;20570;-50
2023/05/16 10:16:53;;;;;;;3.90;1.97;;;18.00;66.70;;;;;;4941338;28;20470;-46
2023/05/16 10:20:33;;;;;;;6.17;1.50;;;18.00;66.80;;;;;;4963850;28;20463;-48
2023/05/16 10:23:38;;;;;;;3.90;1.40;;;18.10;66.60;;;;;;4966116;28;20483;-49
2023/05/16 10:27:29;;;;;;;3.37;1.70;;;18.10;67.00;;;;;;4966290;28;20471;-45
2023/05/16 10:30:42;;;;;;;2.87;1.33;;;18.10;66.70;;;;;;4952159;28;20463;-45
2023/05/16 10:34:04;;;;;;;5.37;1.77;;;18.10;67.00;;;;;;4971197;28;20473;-46
2023/05/16 10:36:56;;;;;;;3.47;1.93;;;18.10;67.10;;;;;;4960269;28;20462;-47
2023/05/16 10:44:10;;;;;;;2.70;1.60;;;18.10;67.30;;;;;;4968473;28;20553;-46
2023/05/16 10:47:29;;;;;;;2.53;1.27;;;18.00;67.30;;;;;;4983355;28;20466;-44
2023/05/16 10:50:40;;;;;;;5.63;1.63;;;18.00;66.90;;;;;;4952539;28;20984;-44
2023/05/16 10:53:52;;;;;;;2.97;1.20;;;18.00;66.90;;;;;;4969380;28;20528;-46
2023/05/16 10:56:52;;;;;;;3.20;1.57;;;18.00;67.20;;;;;;4988319;28;20450;-47
2023/05/16 11:00:06;;;;;;;4.57;1.50;;;18.00;67.30;;;;;;4968610;28;20454;-46
2023/05/16 11:03:29;;;;;;;3.57;1.50;;;18.00;67.50;;;;;;4961131;28;20549;-48
2023/05/16 11:06:55;;;;;;;3.63;1.03;;;18.00;67.70;;;;;;4925845;28;20451;-44
2023/05/16 11:10:04;;;;;;;5.00;1.13;;;18.00;67.40;;;;;;4949428;28;20475;-46
2023/05/16 11:12:44;;;;;;;4.27;1.80;;;18.00;67.50;;;;;;4975357;28;20448;-45
2023/05/16 11:15:24;;;;;;;3.40;1.30;;;18.00;67.80;;;;;;4967037;28;20447;-45
2023/05/16 11:18:09;;;;;;;3.00;1.83;;;18.00;67.70;;;;;;4995357;28;20497;-44
2023/05/16 11:20:40;;;;;;;2.83;1.50;;;18.00;67.70;;;;;;4963958;28;20490;-46
2023/05/16 11:23:25;;;;;;;3.53;1.53;;;18.00;67.80;;;;;;4967980;28;21078;-47
2023/05/16 11:25:59;;;;;;;3.13;1.37;;;18.00;67.70;;;;;;4974324;28;20446;-47
2023/05/16 11:28:28;;;;;;;2.20;1.20;;;18.00;67.80;;;;;;4967531;28;20482;-45
2023/05/16 11:31:04;;;;;;;2.67;1.47;;;17.90;67.60;;;;;;4968167;28;20436;-45
2023/05/16 11:33:34;;;;;;;3.40;1.40;;;18.00;67.70;;;;;;4961385;28;20478;-44
2023/05/16 11:36:10;;;;;;;2.27;1.50;;;18.00;67.30;;;;;;4982625;28;20443;-48
2023/05/16 11:38:44;;;;;;;2.40;1.20;;;17.90;67.60;;;;;;4987100;28;20819;-46
2023/05/16 11:41:15;;;;;;;2.83;1.20;;;17.90;67.50;;;;;;4983630;28;20454;-45
2023/05/16 11:43:45;;;;;;;1.60;1.10;;;18.00;67.50;;;;;;4984364;28;20483;-46
2023/05/16 11:46:15;;;;;;;2.60;1.20;;;18.00;67.70;;;;;;4986545;28;20443;-44
2023/05/16 11:48:46;;;;;;;2.80;0.97;;;17.90;67.40;;;;;;4975408;28;20467;-46
2023/05/16 11:51:19;;;;;;;4.53;1.37;;;18.00;67.80;;;;;;4977547;28;20446;-46
2023/05/16 11:53:49;;;;;;;3.37;1.50;;;18.00;67.70;;;;;;4969413;28;20493;-46
2023/05/16 11:56:21;;;;;;;1.87;0.90;;;18.00;67.90;;;;;;4985681;28;20445;-45
2023/05/16 11:58:50;;;;;;;3.47;1.47;;;18.00;67.90;;;;;;4968909;28;20483;-45
2023/05/16 12:01:19;;;;;;;3.07;1.63;;;18.00;67.80;;;;;;4971425;28;21041;-46
2023/05/16 12:03:56;;;;;;;2.77;1.00;;;18.00;67.90;;;;;;4965313;28;20483;-45
2023/05/16 12:06:30;;;;;;;3.37;1.47;;;18.00;67.90;;;;;;4985531;28;20447;-45
2023/05/16 12:09:01;;;;;;;5.20;1.30;;;18.00;67.60;;;;;;4968588;28;20486;-45
2023/05/16 12:11:31;;;;;;;2.20;1.30;;;18.00;66.60;;;;;;4970350;28;20467;-44
2023/05/16 12:14:00;;;;;;;3.53;1.47;;;18.00;67.10;;;;;;4968314;28;20487;-46
2023/05/16 12:16:30;;;;;;;1.80;1.13;;;18.00;67.10;;;;;;4968338;28;20473;-46
2023/05/16 12:19:01;;;;;;;2.70;1.13;;;18.00;66.90;;;;;;4970759;28;20812;-46
2023/05/16 12:21:32;;;;;;;2.77;1.30;;;18.00;67.10;;;;;;4972379;28;20496;-46
2023/05/16 12:24:03;;;;;;;2.70;1.13;;;18.00;67.20;;;;;;4968818;28;20478;-44
2023/05/16 12:26:35;;;;;;;3.00;1.30;;;18.00;66.70;;;;;;4969886;28;20983;-46
2023/05/16 12:29:05;;;;;;;2.93;1.43;;;18.00;67.00;;;;;;4980520;28;20483;-45
2023/05/16 12:34:30;;;;;;;4.93;1.67;;;18.00;66.80;;;;;;5276747;23;20491;-66
2023/05/16 12:37:01;;;;;;;1.90;1.10;;;18.00;67.00;;;;;;4966615;28;20435;-66
2023/05/16 12:39:38;;;;;;;2.00;1.20;;;18.00;66.90;;;;;;4961538;28;21167;-66
2023/05/16 12:42:09;;;;;;;3.60;1.40;;;18.00;67.00;;;;;;4967716;28;20538;-66
2023/05/16 12:44:58;;;;;;;2.63;1.20;;;18.00;67.00;;;;;;4946411;28;20462;-67
2023/05/16 12:47:36;;;;;;;2.93;1.60;;;18.00;66.50;;;;;;4949414;28;20515;-66
2023/05/16 12:50:12;;;;;;;3.60;1.13;;;17.90;66.70;;;;;;4947299;29;20920;-67
2023/05/16 12:52:53;;;;;;;5.20;1.30;;;18.00;66.90;;;;;;4949017;28;20440;-65
2023/05/16 12:55:27;;;;;;;4.60;1.43;;;18.00;67.00;;;;;;4948858;29;20526;-65
2023/05/16 12:58:04;;;;;;;2.70;1.30;;;18.00;67.00;;;;;;4948193;28;20916;-65
2023/05/16 13:00:36;;;;;;;2.40;0.80;;;18.00;67.10;;;;;;4952491;29;20871;-65
2023/05/16 13:03:08;;;;;;;2.27;1.20;;;18.00;66.80;;;;;;4951262;28;20480;-66
2023/05/16 13:05:43;;;;;;;3.10;1.07;;;18.00;66.80;;;;;;4952405;28;20487;-66
2023/05/16 13:08:15;;;;;;;2.30;1.20;;;18.00;66.80;;;;;;4953620;28;21150;-66
2023/05/16 13:10:48;;;;;;;2.13;1.10;;;18.00;66.60;;;;;;4955230;28;20503;-66
2023/05/16 13:13:19;;;;;;;2.47;1.20;;;18.00;66.80;;;;;;4950139;28;20483;-66
2023/05/16 13:16:04;;;;;;;2.83;1.27;;;18.00;66.40;;;;;;4949825;29;20462;-66
2023/05/16 13:18:35;;;;;;;2.63;1.43;;;18.00;66.50;;;;;;4950577;28;20534;-67
2023/05/16 13:21:04;;;;;;;2.43;1.17;;;18.00;66.00;;;;;;4949853;29;20499;-66
2023/05/16 13:23:35;;;;;;;2.80;0.90;;;18.00;66.00;;;;;;4952581;28;21015;-67
2023/05/16 13:26:05;;;;;;;2.10;1.00;;;18.00;66.30;;;;;;4952523;29;20452;-67
2023/05/16 13:28:34;;;;;;;2.60;1.23;;;18.00;65.90;;;;;;4946869;28;20476;-66